To NAV CANADA Home Page Login to a new session Search on AWWS site Disclaimer Vers la page française équivalente Tips FAQ What's new on the site To the Forecasts and Observations / NOTAM section To "File a Flight Plan" website Publications and other links Update of the User's profile FIC Telephone Numbers My Weather Data Folder Route Weather Data Regional Weather Data Local Weather Data To the Forecasts and Observations / NOTAM section
Request Generated 05/28/2022 at 03:51:34 UTC . Weather information available at that time is displayed.

METAR/TAF

OTTAWA/MACDONALD-CARTIER INTL/ON    

SPECI CYOW 280321Z 25009KT 15SM BKN009 BKN016 19/18 A2962 RMK SF6SC1 SLP033 DENSITY ALT 1300FT=
SPECI CYOW 280310Z 24009KT 15SM SCT009 BKN016 BKN060 18/18 A2962 RMK SF3SC3SC1 SLP033 DENSITY ALT 1300FT=
METAR CYOW 280300Z 22007KT 190V250 15SM SCT012 SCT035 BKN063 18/18 A2962 RMK SF3SC1SC3 SLP033 DENSITY ALT 1300FT=
SPECI CYOW 280218Z 19005KT 15SM FEW009 SCT033 OVC055 19/18 A2963 RMK SF1SC3SC4 SLP035 DENSITY ALT 1300FT=
METAR CYOW 280200Z 20005KT 15SM -RA FEW009 BKN032 OVC050 19/18 A2963 RMK SF1SC4SC3 SLP035 DENSITY ALT 1300FT=
SPECI CYOW 280147Z 20005KT 15SM -RA FEW008 BKN055 BKN110 OVC180 19/18 A2963 RMK SF1SC6AC1AC1 AC TR SLP034 DENSITY ALT 1300FT=
SPECI CYOW 280132Z 19004KT 15SM FEW008 SCT053 BKN110 OVC190 19/18 A2962 RMK SF1SC3AC4AC1 SF TR SLP033 DENSITY ALT 1300FT=
METAR CYOW 280100Z 19004KT 15SM -RA FEW015 FEW080 BKN120 OVC180 19/18 A2961 RMK CU1AC1AC5AS2 CU TR SLP030 DENSITY ALT 1300FT=

TAF CYOW 280240Z 2803/2824 20005KT P6SM -RA SCT008 BKN030 TEMPO
2803/2811 4SM -SHRA BR BKN007 OVC015
BECMG 2805/2807 27010KT
FM281100 31010KT P6SM BKN030 TEMPO 2811/2814 BKN020
FM281800 32010KT P6SM BKN050
FM282200 32010KT P6SM SCT050
RMK NXT FCST BY 280600Z

OTTAWA/GATINEAU/QC    

LWIS CYND 280300Z AUTO 31005KT 19/18 A2960=
LWIS CYND 280200Z AUTO 17002KT 19/18 A2961=
METAR CYND 280100Z 00000KT 15SM FEW032 BKN150 OVC170 19/17 A2961 RMK SC2AC3AC3 LAST STFD OBS/NXT 281100Z SLP029 DENSITY ALT 1200FT=

*** REMARK        : Forecast period has ended; this was the last TAF issued
*** REMARQUE : La période de prévision est échue; ceci était le dernier TAF qui a été émis
TAF CYND 271740Z 2718/2801 22008KT P6SM OVC012 TEMPO 2718/2720 5SM
-SHRA BR OVC008
FM272000 22010KT P6SM OVC025 TEMPO 2720/2801 P6SM -SHRA OVC015
PROB30 2720/2801 2SM TSRA BR BKN008 OVC020CB
RMK NXT FCST BY 281300Z

MONTREAL/PIERRE-ELLIOTT-TRUDEAU INTL/QC    

SPECI CYUL 280312Z 22009KT 8SM -RA FEW003 SCT008 BKN025 OVC050 19/18 A2960 RMK SF1SF2SC3SC2 SLP026 DENSITY ALT 1000FT=
METAR CYUL 280300Z 25008KT 200V260 6SM -RA BR SCT004 BKN008 OVC020 19/19 A2960 RMK SF3SC3SC2 SLP025 DENSITY ALT 1000FT=
SPECI CYUL 280252Z 21005KT 6SM -RA BR FEW004 BKN008 OVC025 19/19 A2960 RMK SF2SC4SC2 SLP024 DENSITY ALT 1100FT=
METAR CYUL 280200Z 18006KT 10SM -RA FEW025 SCT050 BKN085 OVC120 20/19 A2960 RMK SC1SC3AC3AS2 SC TR SLP027 DENSITY ALT 1100FT=
METAR CYUL 280100Z 17005KT 10SM -RA FEW048 BKN110 OVC130 20/18 A2962 RMK SC1AC5AS3 SC TR SLP031 DENSITY ALT 1100FT=

TAF AMD CYUL 280258Z 2803/2824 21010KT 6SM -SHRA BR SCT007 BKN040
TEMPO 2803/2814 3SM -SHRA BR BKN007 OVC015
FM281400 28010KT P6SM BKN040
FM282200 27010KT P6SM SCT050
RMK NXT FCST BY 280600Z=

MONTREAL INTL (MIRABEL)/QC    

METAR CYMX 280300Z VRB02KT 20SM -SHRA OVC100 18/17 A2960 RMK AC8 CVCTV CLD EMBD SLP026 DENSITY ALT 1100FT=
METAR CYMX 280200Z 19003KT 25SM -SHRA FEW053 OVC120 17/17 A2961 RMK SC2AC6 CVCTV CLD EMBD SLP028 DENSITY ALT 1000FT=
METAR CYMX 280100Z VRB02KT 25SM -SHRA FEW015 OVC120 18/17 A2962 RMK SC1AC7 CVCTV CLD EMBD SLP034 DENSITY ALT 1100FT=

TAF AMD CYMX 280206Z 2802/2824 VRB03KT P6SM SCT007 BKN050 TEMPO
2802/2805 4SM -SHRA BR BKN007
FM280500 24006KT 6SM BR SCT007 OVC012 TEMPO 2805/2811 4SM -SHRA
BR BKN007 OVC012
FM281100 30010KT P6SM BKN030 TEMPO 2811/2814 P6SM -SHRA BKN020
FM281600 30012KT P6SM BKN040
FM282200 28010KT P6SM SCT070
RMK NXT FCST BY 280600Z=

KINGSTON/ON    

METAR CYGK 280300Z CCA 21005KT 3SM BR FEW002 BKN100 OVC200 14/13 A2968 RMK SF2AC5CI1 LAST STFD OBS / NXT 281000Z SLP054 DENSITY ALT
500FT=
METAR CYGK 280300Z 21005KT 3/8SM BR FEW002 BKN100 OVC200 14/13 A2968 RMK SF2AC5CI1 LAST STFD OBS / NXT 281000Z SLP054 DENSITY ALT 50
0FT=
SPECI CYGK 280233Z 19006KT 5SM BR FEW002 BKN100 OVC140 14/14 A2968 RMK SF2AC3AC3 SLP055 DENSITY ALT 500FT=
METAR CYGK 280200Z 18007KT 1/2SM FG VV001 14/14 A2968 RMK FG8 SLP053 DENSITY ALT 600FT=
SPECI CYGK 280149Z 16005KT 3/8SM FG VV001 14/14 A2968 RMK FG8 SLP052 DENSITY ALT 600FT=
SPECI CYGK 280133Z 20006KT 2SM BR SCT002 OVC100 15/15 A2968 RMK SF3AC5 SLP052 DENSITY ALT 700FT=
SPECI CYGK 280112Z 24005KT 5SM BR FEW002 BKN100 15/15 A2966 RMK SF1AC6 SLP048 DENSITY ALT 700FT=
METAR CYGK 280100Z 25005KT 2 1/2SM BR FEW002 BKN110 OVC250 15/15 A2966 RMK SF1AC6CI1 SLP048 DENSITY ALT 700FT=

*** REMARK        : Forecast period has ended; this was the last TAF issued
*** REMARQUE : La période de prévision est échue; ceci était le dernier TAF qui a été émis
TAF AMD CYGK 280107Z 2801/2803 25005KT 3SM BR FEW002 BKN100 TEMPO
2801/2803 1/2SM FG VV002
RMK NXT FCST BY 281200Z=

PETAWAWA/ON    

METAR CYWA 280100Z CCA 31003KT 5SM -RA BR FEW004 OVC050 17/17 A2965 RMK CF1SC7 DENSITY ALT 1314FT FG BANK N LAST OBS /NEXT 301200 UT
C SLP041=
METAR CYWA 280100Z 31003KT 5SM RA BR FEW004 OVC050 17/17 A2965 RMK CF1SC7 DENSITY ALT 1314FT FG BANK N LAST OBS /NEXT 301200 UTC SLP
041=
METAR CYWA 280000Z 26002KT 3SM -RA BR FEW029 OVC040 17/17 A2964 RMK CF2SC6 DENSITY ALT 1337FT FG BANK N SLP040=

CYWA - No TAF is issued for this station

Your time UTC time
Weather data provided by Environment Canada and NAV CANADA